ARBÚCIES (La Selva)





Hora UTC 09:30
Temperatura 8.9 ºC
Humitat 96.5 %
Pressió 1007.0 hPa
Pluja 0.1 mm
Velocitat vent 0.2 km/h
Direcció vent ESE
Radiació solar 145.7 W/m²

Dades diàries 2022-12-10



Hora UTC (hivern +1h; estiu +2h)
Temperatura (ºC) Humitat (%) Pressió (hPa) Velocitat vent (km/h) Precipitació (mm) Radiació solar (W/m²)
Hora UTC Aire Humitat Pressió Vel. Dir. Vel. Max Dir. Intent. màx 5 min. Rad. Sol.
00:05 9.6 96.0 1004.0 4.6 SW 8.5 SSW 0.0 0.0
00:10 9.6 96.1 1004.0 4.7 SW 10.2 SW 0.0 0.2
00:15 9.7 96.0 1005.0 2.6 SSW 6.4 SW 0.0 0.0
00:20 9.7 96.0 1004.0 3.5 SW 6.0 SW 0.0 0.0
00:25 9.6 96.0 1004.0 2.6 SW 4.2 SSW 0.0 0.0
00:30 9.6 96.0 1004.0 3.1 SSW 7.1 SW 0.0 0.0
00:35 9.6 96.0 1004.0 1.8 SSW 5.3 SSW 0.0 0.0
00:40 9.6 96.0 1004.0 3.6 SW 5.3 SW 0.0 0.0
00:45 9.5 96.0 1005.0 3.8 SW 5.6 SSW 0.0 0.0
00:50 9.5 96.1 1004.0 4.1 SW 5.6 SSW 0.0 0.0
00:55 9.4 96.1 1004.0 4.4 SW 6.4 SW 0.0 0.0
01:00 9.4 96.1 1004.0 4.6 SW 6.0 SW 0.0 0.0
01:05 9.4 96.2 1004.0 4.7 SW 6.0 WSW 0.0 0.0
01:10 9.4 96.2 1004.0 5.4 SW 8.5 SW 0.0 0.0
01:15 9.3 96.2 1005.0 4.3 SW 6.4 SW 0.0 0.0
01:20 9.3 96.2 1004.0 3.9 SW 6.0 SW 0.0 0.0
01:25 9.3 96.2 1004.0 4.7 SW 7.1 SW 0.0 0.0
01:30 9.2 96.3 1004.0 4.6 SW 6.7 SW 0.0 0.0
01:35 9.2 96.3 1004.0 4.4 SW 6.4 SW 0.0 0.0
01:40 9.2 96.3 1004.0 4.5 SW 6.0 SW 0.0 0.0
01:45 9.1 96.3 1005.0 5.1 SW 6.7 SSW 0.0 0.0
01:50 9.1 96.4 1004.0 3.9 SW 5.3 WSW 0.0 0.0
01:55 9.1 96.4 1004.0 4.3 SW 9.2 WSW 0.0 0.0
02:00 9.1 96.5 1004.0 1.5 SW 4.9 SW 0.0 0.0
02:05 9.1 96.4 1004.0 1.7 SW 3.5 SW 0.0 0.0
02:10 9.1 96.4 1004.0 3.6 SW 5.6 SSW 0.0 0.0
02:15 9.1 96.5 1005.0 3.7 SW 6.0 SSW 0.0 0.0
02:20 9.1 96.5 1004.0 4.2 SW 5.3 SSW 0.0 0.0
02:25 9.1 96.5 1005.0 1.7 SW 6.0 SW 0.0 0.0
02:30 9.1 96.6 1005.0 5.6 SSW 7.4 SW 0.0 0.0
02:35 9.2 96.7 1005.0 7.4 SW 9.5 SSW 0.0 0.0
02:40 9.2 96.7 1005.0 6.5 SW 9.9 SSW 0.0 0.0
02:45 9.2 96.6 1005.0 6.2 SW 8.5 SW 0.0 0.0
02:50 9.2 96.6 1005.0 5.4 SW 8.1 SW 0.0 0.0
02:55 9.2 96.7 1004.0 5.4 SW 9.5 SW 0.0 0.0
03:00 9.2 96.7 1005.0 5.0 SW 13.4 WSW 0.0 0.0
03:05 9.3 96.7 1005.0 6.5 SW 11.3 SW 0.0 0.0
03:10 9.3 96.6 1005.0 4.3 SW 8.1 WSW 0.0 0.0
03:15 9.3 96.6 1005.0 4.2 SW 9.2 SW 0.0 0.0
03:20 9.3 96.6 1005.0 3.1 SW 6.7 SW 0.0 0.0
03:25 9.3 96.6 1004.0 1.5 SW 7.1 SSW 0.0 0.0
03:30 9.3 96.5 1005.0 1.4 SW 6.0 SW 0.0 0.0
03:35 9.3 96.6 1004.0 3.9 SW 6.4 SSW 0.0 0.0
03:40 9.3 96.5 1004.0 2.8 SW 6.7 W 0.0 0.0
03:45 9.3 96.5 1005.0 4.5 SW 10.6 SW 0.0 0.0
03:50 9.4 96.5 1004.0 7.0 SW 12.7 SSW 0.0 0.0
03:55 9.3 96.3 1004.0 4.0 SW 9.2 SW 0.0 0.0
04:00 9.3 96.3 1004.0 3.7 SSW 7.4 SSW 0.0 0.0
04:05 9.2 96.1 1004.0 0.3 SW 2.1 SW 0.0 0.0
04:10 9.1 96.0 1005.0 0.0 W 0.4 W 0.0 0.0
04:15 8.9 96.0 1005.0 1.6 SW 4.2 SW 0.0 0.0
04:20 8.8 96.0 1005.0 0.4 N 2.1 N 0.0 0.0
04:25 8.8 96.1 1004.0 0.0 WSW 0.4 NW 0.0 0.0
04:30 8.8 96.2 1005.0 2.3 SW 4.2 SSW 0.0 0.0
04:35 8.6 96.0 1005.0 3.7 SW 5.3 SW 0.0 0.0
04:40 8.4 96.0 1005.0 3.0 WSW 5.3 WSW 0.0 0.0
04:45 8.3 96.1 1005.0 4.2 SW 5.3 SW 0.0 0.0
04:50 8.2 96.1 1005.0 2.9 SW 4.9 SSW 0.0 0.0
04:55 8.1 96.1 1005.0 4.0 SW 6.0 SW 0.0 0.0
05:00 7.9 96.0 1005.0 0.9 SW 4.2 SW 0.0 0.0
05:05 7.7 96.0 1005.0 0.0 SW 0.4 WSW 0.0 0.0
05:10 7.6 96.3 1005.0 0.0 SW 0.4 SSW 0.0 0.0
05:15 7.6 96.3 1005.0 4.6 SSW 8.1 SW 0.0 0.0
05:20 7.6 96.5 1005.0 7.2 SSW 10.2 SSW 0.0 0.0
05:25 7.6 96.4 1005.0 5.6 SSW 7.8 SSW 0.0 0.0
05:30 7.7 96.7 1005.0 5.9 SSW 8.1 SSW 0.0 0.0
05:35 7.7 96.6 1005.0 6.5 SSW 9.2 SW 0.0 0.0
05:40 7.6 96.5 1005.0 3.7 SSW 6.4 SSW 0.0 0.0
05:45 7.4 96.4 1006.0 0.6 SW 2.5 WSW 0.0 0.0
05:50 7.4 96.4 1005.0 1.4 SSW 3.9 SSW 0.0 0.0
05:55 7.4 96.5 1005.0 1.1 SSW 4.9 S 0.0 0.0
06:00 7.6 96.8 1005.0 5.7 SSW 10.6 SSW 0.0 0.0
06:05 7.8 96.8 1005.0 6.4 SW 9.5 SSW 0.0 0.0
06:10 7.8 96.7 1005.0 3.8 SW 5.6 SSW 0.0 0.0
06:15 7.7 96.6 1006.0 2.8 SSW 3.9 S 0.0 0.0
06:20 7.7 96.6 1005.0 0.3 SSW 3.2 S 0.0 0.0
06:25 7.7 96.6 1005.0 0.0 SW 0.4 WSW 0.0 0.0
06:30 7.7 96.5 1005.0 0.4 SW 2.8 SSW 0.0 0.0
06:35 7.6 96.5 1006.0 0.0 SW 0.4 SSW 0.0 0.0
06:40 7.6 96.6 1006.0 0.0 WSW 0.4 WSW 0.0 0.0
06:45 7.6 96.6 1006.0 0.0 SSW 0.4 SW 0.0 0.0
06:50 7.7 96.7 1005.0 0.0 SW 0.4 SSW 0.0 0.0
06:55 7.7 96.7 1005.0 0.0 WSW 0.4 WSW 0.0 0.0
07:00 7.6 96.6 1006.0 0.0 SW 0.4 SSW 0.0 0.6
07:05 7.6 96.7 1006.0 3.2 SSW 6.4 SSW 0.0 1.2
07:10 7.7 96.8 1006.0 4.6 SW 6.4 SW 0.0 1.9
07:15 7.6 96.7 1007.0 2.8 SW 4.9 SW 0.0 3.1
07:20 7.6 96.6 1006.0 0.2 SW 1.8 SW 0.0 4.4
07:25 7.5 96.6 1006.0 0.6 SW 3.2 SW 0.0 6.2
07:30 7.4 96.6 1006.0 0.0 SW 0.4 SSW 0.0 8.7
07:35 7.3 96.6 1006.0 0.0 W 0.4 WSW 0.0 13.3
07:40 7.3 96.7 1006.0 0.0 SSW 0.4 W 0.0 24.5
07:45 7.5 96.8 1007.0 0.0 SSW 0.4 SSW 0.0 35.4
07:50 7.5 96.8 1006.0 0.0 SW 0.4 SW 0.0 44.5
07:55 7.6 96.9 1006.0 2.2 SW 5.6 SSW 0.0 50.9
08:00 7.7 96.9 1006.0 2.3 SW 3.2 SW 0.1 49.2
08:05 7.7 96.8 1006.0 0.2 SSW 1.8 SSW 0.0 48.3
08:10 7.8 96.9 1006.0 0.0 WSW 0.4 WSW 0.0 66.3
08:15 7.9 96.9 1007.0 0.0 SW 0.4 WSW 0.0 67.5
08:20 8.0 96.9 1006.0 0.0 SW 0.4 SW 0.0 74.4
08:25 8.2 97.0 1007.0 0.0 SW 0.4 WSW 0.0 79.7
08:30 8.3 97.0 1007.0 0.0 SW 0.4 SW 0.0 83.1
08:35 8.4 97.0 1007.0 0.0 WSW 0.4 WSW 0.0 88.4
08:40 8.6 97.0 1007.0 0.0 WSW 0.4 WSW 0.0 91.9
08:45 8.7 97.0 1007.0 0.0 SW 0.4 W 0.0 95.3
08:50 8.7 96.9 1007.0 0.0 S 0.4 S 0.0 83.2
08:55 8.7 96.8 1007.0 0.0 SSE 0.4 S 0.0 71.6
09:00 8.7 96.8 1007.0 0.0 ESE 0.7 ESE 0.0 63.4
09:05 8.8 96.8 1007.0 0.0 ESE 0.4 ESE 0.0 59.1
09:10 8.8 96.7 1007.0 0.0 SSE 0.4 ESE 0.0 124.1
09:15 8.9 96.8 1008.0 0.0 SSE 0.4 SSE 0.0 126.5
09:20 8.9 96.6 1007.0 1.0 ENE 3.2 ENE 0.0 125.9
09:25 8.8 96.4 1007.0 2.4 ENE 4.6 ENE 0.0 140.3
09:30 8.9 96.5 1007.0 0.2 ESE 1.8 SE 0.0 145.7
Màxima 9.7 97.0 1008.0 7.4 SW 13.4 WSW 0.1 145.7
Mínima 7.3 96.0 1004.0
Total 0.1